createdAt,value
2022-12-16T00:00:48.316Z,82.31
2022-12-16T00:03:15.910Z,82.46
2022-12-16T00:05:44.646Z,82.33
2022-12-16T00:08:14.278Z,82.30
2022-12-16T00:10:54.999Z,82.09
2022-12-16T00:13:22.766Z,82.34
2022-12-16T00:15:50.350Z,82.42
2022-12-16T00:18:20.160Z,82.06
2022-12-16T00:20:47.737Z,82.20
2022-12-16T00:23:15.700Z,82.37
2022-12-16T00:25:43.255Z,82.14
2022-12-16T00:28:10.891Z,82.22
2022-12-16T00:30:38.431Z,82.11
2022-12-16T00:33:06.011Z,82.38
2022-12-16T00:35:33.649Z,82.29
2022-12-16T00:38:01.182Z,81.98
2022-12-16T00:40:28.791Z,81.70
2022-12-16T00:42:56.866Z,82.12
2022-12-16T00:45:24.420Z,81.87
2022-12-16T00:47:52.443Z,82.05
2022-12-16T00:50:20.487Z,82.17
2022-12-16T00:52:48.034Z,81.95
2022-12-16T00:55:15.602Z,82.30
2022-12-16T00:57:43.206Z,82.34
2022-12-16T01:00:13.053Z,82.43
2022-12-16T01:02:41.620Z,82.26
2022-12-16T01:05:09.390Z,82.45
2022-12-16T01:07:38.678Z,82.02
2022-12-16T01:10:06.493Z,82.65
2022-12-16T01:12:34.504Z,82.02
2022-12-16T01:15:02.049Z,82.01
2022-12-16T01:17:29.621Z,81.83
2022-12-16T01:19:57.749Z,82.33
2022-12-16T01:22:25.291Z,82.04
2022-12-16T01:24:53.510Z,82.30
2022-12-16T01:27:22.940Z,82.27
2022-12-16T01:29:50.839Z,81.71
2022-12-16T01:32:19.667Z,82.41
2022-12-16T01:34:51.044Z,82.07
2022-12-16T01:37:23.225Z,82.19
2022-12-16T01:39:50.856Z,81.90
2022-12-16T01:42:19.330Z,81.99
2022-12-16T01:44:46.878Z,82.10
2022-12-16T01:47:14.459Z,82.41
2022-12-16T01:49:42.373Z,82.08
2022-12-16T01:52:09.924Z,82.15
2022-12-16T01:54:37.517Z,82.12
2022-12-16T01:57:05.041Z,82.13
2022-12-16T01:59:32.593Z,81.90
2022-12-16T02:02:00.844Z,82.47
2022-12-16T02:04:28.749Z,82.07
2022-12-16T02:07:01.141Z,82.08
2022-12-16T02:09:28.738Z,82.26
2022-12-16T02:11:56.270Z,82.14
2022-12-16T02:14:24.181Z,82.13
2022-12-16T02:16:51.872Z,82.44
2022-12-16T02:19:21.245Z,82.07
2022-12-16T02:21:49.184Z,81.95
2022-12-16T02:24:16.758Z,81.70
2022-12-16T02:26:44.652Z,82.23
2022-12-16T02:29:12.606Z,81.83
2022-12-16T02:31:42.828Z,82.10
2022-12-16T02:34:10.379Z,81.78
2022-12-16T02:36:38.000Z,82.04
2022-12-16T02:39:05.899Z,81.80
2022-12-16T02:41:33.418Z,82.21
2022-12-16T02:44:02.419Z,82.09
2022-12-16T02:46:30.193Z,81.94
2022-12-16T02:48:57.708Z,81.87
2022-12-16T02:51:26.020Z,81.96
2022-12-16T02:53:53.583Z,81.56
2022-12-16T02:56:21.119Z,81.86
2022-12-16T02:58:48.653Z,81.88
2022-12-16T03:01:16.354Z,81.58
2022-12-16T03:03:44.506Z,82.00
2022-12-16T03:06:12.227Z,81.69
2022-12-16T03:08:39.840Z,82.63
2022-12-16T03:11:08.269Z,81.94
2022-12-16T03:13:35.850Z,82.42
2022-12-16T03:16:03.779Z,81.81
2022-12-16T03:18:31.290Z,81.83
2022-12-16T03:20:58.873Z,81.94
2022-12-16T03:23:26.939Z,82.07
2022-12-16T03:25:54.558Z,82.27
2022-12-16T03:28:22.503Z,82.24
2022-12-16T03:30:50.165Z,81.64
2022-12-16T03:33:21.834Z,81.80
2022-12-16T03:35:49.409Z,81.99
2022-12-16T03:38:17.001Z,82.44
2022-12-16T03:40:45.017Z,81.91
2022-12-16T03:43:12.567Z,82.05
2022-12-16T03:45:41.900Z,81.91
2022-12-16T03:48:09.591Z,82.07
2022-12-16T03:50:37.203Z,82.00
2022-12-16T03:53:05.721Z,82.03
2022-12-16T03:55:33.852Z,81.86
2022-12-16T03:58:03.942Z,81.77
2022-12-16T04:00:31.573Z,81.25
2022-12-16T04:02:59.395Z,82.01
2022-12-16T04:05:27.605Z,81.84
2022-12-16T04:08:00.232Z,81.75
2022-12-16T04:10:43.367Z,81.88
2022-12-16T04:13:28.645Z,81.86
2022-12-16T04:16:14.121Z,82.33
2022-12-16T04:18:59.457Z,82.26
2022-12-16T04:21:44.301Z,82.05
2022-12-16T04:24:20.979Z,82.23
2022-12-16T04:27:10.496Z,82.21
2022-12-16T04:30:06.616Z,82.13
2022-12-16T04:32:54.460Z,82.38
2022-12-16T04:35:39.371Z,81.95
2022-12-16T04:38:26.129Z,81.71
2022-12-16T04:41:11.245Z,82.03
2022-12-16T04:43:56.401Z,81.59
2022-12-16T04:46:41.438Z,82.30
2022-12-16T04:49:27.167Z,81.95
2022-12-16T04:52:12.309Z,82.10
2022-12-16T04:54:57.335Z,82.22
2022-12-16T04:57:42.415Z,82.36
2022-12-16T05:00:29.375Z,82.00
2022-12-16T05:03:14.560Z,82.07
2022-12-16T05:05:59.657Z,82.42
2022-12-16T05:08:44.626Z,82.15
2022-12-16T05:11:30.383Z,82.31
2022-12-16T05:14:15.493Z,82.15
2022-12-16T05:17:00.397Z,82.38
2022-12-16T05:19:45.534Z,82.73
2022-12-16T05:22:32.307Z,81.91
2022-12-16T05:25:17.264Z,82.24
2022-12-16T05:28:02.275Z,81.78
2022-12-16T05:30:47.210Z,81.79
2022-12-16T05:33:33.563Z,82.29
2022-12-16T05:36:18.952Z,82.09
2022-12-16T05:39:03.975Z,82.27
2022-12-16T05:41:48.996Z,82.34
2022-12-16T05:44:34.512Z,82.04
2022-12-16T05:47:19.976Z,82.37
2022-12-16T05:50:05.145Z,81.93
2022-12-16T05:52:50.287Z,81.97
2022-12-16T05:55:35.775Z,82.01
2022-12-16T05:58:29.416Z,81.96
2022-12-16T06:01:14.347Z,82.46
2022-12-16T06:04:02.708Z,81.79
2022-12-16T06:07:03.379Z,81.70
2022-12-16T06:09:53.186Z,81.91
2022-12-16T06:12:41.238Z,82.17
2022-12-16T06:15:25.568Z,82.51
2022-12-16T06:18:10.918Z,81.93
2022-12-16T06:20:55.989Z,82.38
2022-12-16T06:23:40.961Z,82.18
2022-12-16T06:26:26.162Z,82.39
2022-12-16T06:29:13.122Z,82.06
2022-12-16T06:31:58.392Z,81.76
2022-12-16T06:34:43.305Z,82.27
2022-12-16T06:37:28.359Z,82.09
2022-12-16T06:40:14.350Z,81.87
2022-12-16T06:42:59.599Z,81.59
2022-12-16T06:45:45.226Z,82.31
2022-12-16T06:48:30.642Z,82.23
2022-12-16T06:51:17.612Z,81.62
2022-12-16T06:54:08.448Z,82.12
2022-12-16T06:56:53.434Z,82.01
2022-12-16T06:59:38.709Z,81.74
2022-12-16T07:02:23.623Z,81.02
2022-12-16T07:05:08.990Z,81.18
2022-12-16T07:07:54.001Z,81.29
2022-12-16T07:10:39.045Z,81.44
2022-12-16T07:13:24.415Z,81.05
2022-12-16T07:16:09.771Z,81.43
2022-12-16T07:18:54.604Z,81.63
2022-12-16T07:21:40.119Z,81.42
2022-12-16T07:24:25.777Z,81.39
2022-12-16T07:27:11.222Z,81.81
2022-12-16T07:29:56.258Z,81.25
2022-12-16T07:32:41.274Z,81.55
2022-12-16T07:35:23.521Z,81.48
2022-12-16T07:38:08.417Z,81.85
2022-12-16T07:40:53.485Z,81.59
2022-12-16T07:43:38.417Z,81.93
2022-12-16T07:46:23.800Z,82.03
2022-12-16T07:49:05.316Z,81.38
2022-12-16T07:51:50.270Z,81.95
2022-12-16T07:54:36.086Z,81.78
2022-12-16T07:57:22.435Z,81.54
2022-12-16T08:00:07.724Z,81.58
2022-12-16T08:02:56.287Z,81.75
2022-12-16T08:05:41.406Z,81.48
2022-12-16T08:08:27.223Z,81.66
2022-12-16T08:11:12.238Z,81.69
2022-12-16T08:13:57.194Z,81.33
2022-12-16T08:16:42.555Z,81.73
2022-12-16T08:19:28.168Z,81.82
2022-12-16T08:22:13.237Z,81.29
2022-12-16T08:24:58.312Z,80.96
2022-12-16T08:27:42.812Z,81.49
2022-12-16T08:30:28.590Z,80.87
2022-12-16T08:33:19.185Z,80.95
2022-12-16T08:36:04.795Z,80.67
2022-12-16T08:38:49.829Z,80.98
2022-12-16T08:41:36.057Z,80.83
2022-12-16T08:44:21.232Z,80.60
2022-12-16T08:47:06.664Z,80.28
2022-12-16T08:49:53.636Z,80.46
2022-12-16T08:52:42.351Z,80.78
2022-12-16T08:55:29.860Z,80.95
2022-12-16T08:58:14.988Z,80.53
2022-12-16T09:01:06.219Z,80.43
2022-12-16T09:03:53.208Z,80.39
2022-12-16T09:06:40.627Z,79.80
2022-12-16T09:09:26.451Z,80.13
2022-12-16T09:12:11.748Z,80.41
2022-12-16T09:14:56.723Z,80.22
2022-12-16T09:17:42.069Z,80.27
2022-12-16T09:20:27.190Z,79.93
2022-12-16T09:23:12.366Z,80.07
2022-12-16T09:25:59.017Z,79.91
2022-12-16T09:28:44.111Z,79.97
2022-12-16T09:31:29.368Z,79.51
2022-12-16T09:34:14.605Z,79.27
2022-12-16T09:36:59.658Z,78.96
2022-12-16T09:39:44.710Z,78.86
2022-12-16T09:42:29.820Z,78.96
2022-12-16T09:45:14.789Z,78.81
2022-12-16T09:48:00.498Z,78.73
2022-12-16T09:50:45.609Z,78.24
2022-12-16T09:53:31.119Z,77.52
2022-12-16T09:56:16.801Z,76.92
2022-12-16T09:59:02.352Z,76.54
2022-12-16T10:01:47.716Z,75.81
2022-12-16T10:04:33.165Z,74.65
2022-12-16T10:07:18.505Z,74.51
2022-12-16T10:10:03.554Z,74.27
2022-12-16T10:12:48.698Z,73.71
2022-12-16T10:15:33.807Z,73.28
2022-12-16T10:18:18.914Z,72.16
2022-12-16T10:21:15.724Z,72.56
2022-12-16T10:24:00.940Z,72.23
2022-12-16T10:26:46.094Z,73.01
2022-12-16T10:29:31.488Z,73.13
2022-12-16T10:32:16.548Z,72.48
2022-12-16T10:35:01.983Z,71.53
2022-12-16T10:37:47.105Z,71.06
2022-12-16T10:40:32.318Z,71.23
2022-12-16T10:43:22.196Z,71.56
2022-12-16T10:46:07.915Z,70.90
2022-12-16T10:48:56.473Z,70.62
2022-12-16T10:51:42.446Z,70.57
2022-12-16T10:54:27.727Z,70.76
2022-12-16T10:57:13.138Z,71.88
2022-12-16T10:59:58.160Z,73.00
2022-12-16T11:02:43.456Z,72.85
2022-12-16T11:05:29.484Z,72.65
2022-12-16T11:08:14.656Z,73.42
2022-12-16T11:10:59.769Z,72.95
2022-12-16T11:13:45.282Z,72.42
2022-12-16T11:16:30.973Z,71.87
2022-12-16T11:19:16.506Z,71.82
2022-12-16T11:22:00.704Z,72.85
2022-12-16T11:24:45.845Z,73.04
2022-12-16T11:27:31.135Z,72.67
2022-12-16T11:30:16.447Z,72.66
2022-12-16T11:33:06.923Z,72.59
2022-12-16T11:35:52.304Z,72.53
2022-12-16T11:38:37.647Z,71.68
2022-12-16T11:41:22.966Z,70.38
2022-12-16T11:44:07.836Z,70.31
2022-12-16T11:47:04.671Z,69.07
2022-12-16T11:49:50.118Z,69.14
2022-12-16T11:52:37.683Z,68.99
2022-12-16T11:55:35.962Z,69.30
2022-12-16T11:58:28.449Z,68.54
2022-12-16T12:01:14.184Z,68.61
2022-12-16T12:03:59.238Z,69.17
2022-12-16T12:06:44.821Z,68.47
2022-12-16T12:09:29.985Z,68.04
2022-12-16T12:12:15.088Z,68.76
2022-12-16T12:15:00.310Z,69.43
2022-12-16T12:17:45.249Z,69.09
2022-12-16T12:20:30.472Z,68.46
2022-12-16T12:23:15.850Z,69.24
2022-12-16T12:26:01.329Z,70.26
2022-12-16T12:28:46.302Z,70.79
2022-12-16T12:31:31.688Z,71.17
2022-12-16T12:34:16.969Z,71.26
2022-12-16T12:37:02.541Z,72.20
2022-12-16T12:39:47.578Z,72.54
2022-12-16T12:42:32.864Z,72.36
2022-12-16T12:45:18.122Z,72.37
2022-12-16T12:48:03.341Z,73.04
2022-12-16T12:50:48.482Z,73.32
2022-12-16T12:53:34.454Z,73.64
2022-12-16T12:56:20.105Z,73.92
2022-12-16T12:59:05.832Z,74.25
2022-12-16T13:02:05.723Z,73.71
2022-12-16T13:04:51.115Z,74.61
2022-12-16T13:07:37.012Z,74.05
2022-12-16T13:10:22.227Z,73.92
2022-12-16T13:13:07.451Z,72.64
2022-12-16T13:15:52.657Z,72.42
2022-12-16T13:18:38.151Z,71.80
2022-12-16T13:21:23.497Z,70.93
2022-12-16T13:24:08.643Z,71.13
2022-12-16T13:26:53.834Z,70.99
2022-12-16T13:29:39.247Z,70.46
2022-12-16T13:32:24.743Z,69.71
2022-12-16T13:35:09.869Z,70.30
2022-12-16T13:37:55.216Z,70.43
2022-12-16T13:40:40.929Z,70.15
2022-12-16T13:43:38.616Z,71.22
2022-12-16T13:46:23.648Z,71.01
2022-12-16T13:49:23.358Z,71.55
2022-12-16T13:52:09.254Z,72.21
2022-12-16T13:54:54.566Z,72.29
2022-12-16T13:57:39.710Z,72.87
2022-12-16T14:00:24.797Z,72.97
2022-12-16T14:03:10.357Z,72.86
2022-12-16T14:06:04.837Z,73.57
2022-12-16T14:08:50.656Z,73.08
2022-12-16T14:11:36.657Z,73.75
2022-12-16T14:14:22.804Z,74.21
2022-12-16T14:17:08.044Z,74.90
2022-12-16T14:19:53.069Z,74.79
2022-12-16T14:22:38.188Z,75.72
2022-12-16T14:25:27.871Z,75.70
2022-12-16T14:28:13.984Z,75.36
2022-12-16T14:31:13.824Z,76.06
2022-12-16T14:33:58.869Z,76.21
2022-12-16T14:36:44.726Z,76.23
2022-12-16T14:39:30.030Z,76.99
2022-12-16T14:42:15.087Z,78.07
2022-12-16T14:45:00.259Z,77.21
2022-12-16T14:47:45.652Z,77.75
2022-12-16T14:50:31.015Z,77.24
2022-12-16T14:53:16.222Z,78.16
2022-12-16T14:56:01.253Z,78.19
2022-12-16T14:58:46.679Z,78.13
2022-12-16T15:01:32.268Z,78.44
2022-12-16T15:04:18.125Z,78.48
2022-12-16T15:07:03.308Z,78.47
2022-12-16T15:09:49.187Z,79.07
2022-12-16T15:12:34.745Z,78.99
2022-12-16T15:15:19.739Z,78.22
2022-12-16T15:18:04.879Z,78.76
2022-12-16T15:20:49.874Z,79.18
2022-12-16T15:23:35.395Z,78.99
2022-12-16T15:26:20.519Z,78.59
2022-12-16T15:29:05.851Z,79.21
2022-12-16T15:31:51.170Z,79.54
2022-12-16T15:34:36.940Z,79.36
2022-12-16T15:37:21.868Z,79.31
2022-12-16T15:40:06.937Z,79.06
2022-12-16T15:42:52.304Z,79.80
2022-12-16T15:45:37.559Z,79.84
2022-12-16T15:48:22.545Z,79.84
2022-12-16T15:51:07.653Z,80.00
2022-12-16T15:53:52.867Z,79.72
2022-12-16T15:56:38.384Z,79.71
2022-12-16T15:59:23.318Z,79.78
2022-12-16T16:02:08.693Z,80.50
2022-12-16T16:04:54.461Z,80.02
2022-12-16T16:07:40.097Z,79.60
2022-12-16T16:10:25.497Z,79.85
2022-12-16T16:13:10.565Z,79.88
2022-12-16T16:15:55.954Z,79.94
2022-12-16T16:18:41.415Z,80.23
2022-12-16T16:21:26.566Z,80.00
2022-12-16T16:24:11.875Z,80.04
2022-12-16T16:27:12.174Z,79.89
2022-12-16T16:29:57.587Z,80.08
2022-12-16T16:32:42.865Z,79.95
2022-12-16T16:35:28.170Z,80.16
2022-12-16T16:38:18.202Z,80.67
2022-12-16T16:41:15.993Z,80.29
2022-12-16T16:44:01.352Z,80.45
2022-12-16T16:46:46.568Z,80.16
2022-12-16T16:49:32.444Z,80.28
2022-12-16T16:52:17.942Z,80.66
2022-12-16T16:55:03.189Z,80.50
2022-12-16T16:57:48.568Z,80.33
2022-12-16T17:00:33.958Z,80.45
2022-12-16T17:03:20.138Z,80.54
2022-12-16T17:06:05.319Z,80.67
2022-12-16T17:08:50.582Z,80.12
2022-12-16T17:11:35.935Z,80.90
2022-12-16T17:14:21.020Z,80.39
2022-12-16T17:17:06.043Z,80.83
2022-12-16T17:19:51.071Z,81.00
2022-12-16T17:22:36.535Z,80.71
2022-12-16T17:25:22.142Z,80.56
2022-12-16T17:28:07.220Z,80.64
2022-12-16T17:30:52.698Z,80.56
2022-12-16T17:33:38.411Z,80.80
2022-12-16T17:36:28.524Z,80.83
2022-12-16T17:39:16.780Z,80.66
2022-12-16T17:42:01.834Z,80.73
2022-12-16T17:44:47.138Z,80.62
2022-12-16T17:47:32.509Z,80.58
2022-12-16T17:50:17.518Z,80.99
2022-12-16T17:53:02.828Z,80.86
2022-12-16T17:55:48.181Z,80.49
2022-12-16T17:58:33.678Z,80.90
2022-12-16T18:01:18.997Z,80.79
2022-12-16T18:04:04.660Z,80.69
2022-12-16T18:06:51.829Z,81.41
2022-12-16T18:09:51.650Z,80.63
2022-12-16T18:12:36.540Z,80.89
2022-12-16T18:15:21.956Z,80.67
2022-12-16T18:18:07.853Z,80.95
2022-12-16T18:20:53.302Z,80.94
2022-12-16T18:23:46.886Z,80.55
2022-12-16T18:26:34.524Z,81.32
2022-12-16T18:29:19.419Z,81.15
2022-12-16T18:32:04.784Z,81.20
2022-12-16T18:34:49.725Z,81.38
2022-12-16T18:37:34.982Z,81.34
2022-12-16T18:40:20.703Z,81.79
2022-12-16T18:43:05.920Z,81.10
2022-12-16T18:45:50.354Z,81.22
2022-12-16T18:48:35.534Z,81.26
2022-12-16T18:51:21.030Z,81.27
2022-12-16T18:54:06.336Z,81.12
2022-12-16T18:56:51.457Z,81.05
2022-12-16T18:59:36.542Z,80.61
2022-12-16T19:02:24.314Z,81.50
2022-12-16T19:05:09.648Z,81.04
2022-12-16T19:08:00.400Z,81.20
2022-12-16T19:10:45.484Z,81.25
2022-12-16T19:13:30.994Z,81.52
2022-12-16T19:16:16.347Z,81.39
2022-12-16T19:19:01.400Z,81.74
2022-12-16T19:21:52.149Z,81.23
2022-12-16T19:24:42.203Z,81.34
2022-12-16T19:27:27.703Z,81.38
2022-12-16T19:30:13.066Z,81.28
2022-12-16T19:32:58.546Z,81.46
2022-12-16T19:35:44.399Z,81.57
2022-12-16T19:38:29.749Z,81.32
2022-12-16T19:41:14.765Z,80.84
2022-12-16T19:44:05.402Z,81.36
2022-12-16T19:46:56.702Z,81.44
2022-12-16T19:49:44.510Z,81.70
2022-12-16T19:52:29.749Z,81.84
2022-12-16T19:55:17.524Z,81.59
2022-12-16T19:58:03.322Z,81.84
2022-12-16T20:00:48.518Z,81.95
2022-12-16T20:03:34.263Z,81.86
2022-12-16T20:06:19.763Z,81.87
2022-12-16T20:09:05.274Z,81.29
2022-12-16T20:11:50.807Z,81.78
2022-12-16T20:14:36.820Z,81.58
2022-12-16T20:17:22.021Z,81.59
2022-12-16T20:20:07.401Z,81.55
2022-12-16T20:22:52.748Z,81.43
2022-12-16T20:25:41.265Z,82.01
2022-12-16T20:28:26.423Z,81.84
2022-12-16T20:31:14.015Z,81.91
2022-12-16T20:34:02.961Z,81.77
2022-12-16T20:36:48.278Z,81.93
2022-12-16T20:39:33.516Z,81.05
2022-12-16T20:42:18.954Z,81.27
2022-12-16T20:45:04.357Z,81.02
2022-12-16T20:47:49.598Z,81.49
2022-12-16T20:50:34.544Z,82.21
2022-12-16T20:53:21.630Z,81.99
2022-12-16T20:56:06.805Z,81.95
2022-12-16T20:58:57.268Z,82.04
2022-12-16T21:01:47.938Z,81.91
2022-12-16T21:04:41.906Z,81.90
2022-12-16T21:07:27.225Z,82.19
2022-12-16T21:10:12.324Z,81.90
2022-12-16T21:13:00.705Z,82.00
2022-12-16T21:15:52.496Z,81.93
2022-12-16T21:18:41.265Z,82.27
2022-12-16T21:21:26.501Z,81.61
2022-12-16T21:24:11.877Z,81.88
2022-12-16T21:26:57.950Z,81.71
2022-12-16T21:29:42.994Z,82.25
2022-12-16T21:32:27.966Z,82.21
2022-12-16T21:35:13.352Z,82.07
2022-12-16T21:38:00.103Z,81.89
2022-12-16T21:40:45.246Z,81.96
2022-12-16T21:43:35.741Z,82.12
2022-12-16T21:46:20.971Z,81.90
2022-12-16T21:49:07.152Z,82.33
2022-12-16T21:51:52.607Z,81.77
2022-12-16T21:54:41.849Z,82.20
2022-12-16T21:57:26.901Z,81.78
2022-12-16T22:00:13.836Z,82.25
2022-12-16T22:02:59.413Z,81.70
2022-12-16T22:05:44.621Z,81.55
2022-12-16T22:08:32.175Z,81.94
2022-12-16T22:11:18.204Z,81.44
2022-12-16T22:14:03.522Z,81.68
2022-12-16T22:16:48.461Z,81.99
2022-12-16T22:19:33.663Z,82.20
2022-12-16T22:22:20.749Z,81.56
2022-12-16T22:25:12.563Z,81.64
2022-12-16T22:27:59.662Z,82.03
2022-12-16T22:30:44.907Z,82.36
2022-12-16T22:33:30.215Z,81.93
2022-12-16T22:36:15.220Z,81.97
2022-12-16T22:39:00.046Z,82.22
2022-12-16T22:41:45.106Z,81.58
2022-12-16T22:44:32.661Z,81.75
2022-12-16T22:47:17.948Z,81.60
2022-12-16T22:50:03.092Z,81.59
2022-12-16T22:52:48.154Z,81.89
2022-12-16T22:55:34.380Z,81.77
2022-12-16T22:58:19.468Z,81.97
2022-12-16T23:01:04.465Z,81.65
2022-12-16T23:03:49.591Z,82.10
2022-12-16T23:06:36.659Z,81.69
2022-12-16T23:09:21.754Z,82.21
2022-12-16T23:12:06.863Z,81.95
2022-12-16T23:14:52.016Z,81.89
2022-12-16T23:17:38.015Z,81.84
2022-12-16T23:20:23.483Z,81.87
2022-12-16T23:23:08.435Z,81.58
2022-12-16T23:25:53.898Z,81.58
2022-12-16T23:28:48.375Z,82.16
2022-12-16T23:31:33.467Z,81.91
2022-12-16T23:34:18.445Z,82.05
2022-12-16T23:37:03.397Z,81.80
2022-12-16T23:39:48.927Z,81.63
2022-12-16T23:42:34.245Z,81.85
2022-12-16T23:45:19.228Z,82.22
2022-12-16T23:48:04.220Z,81.92
2022-12-16T23:50:49.345Z,82.47
2022-12-16T23:53:34.568Z,82.36
2022-12-16T23:56:19.764Z,81.79
2022-12-16T23:59:04.892Z,82.08
